createdAt,value
2023-03-22T00:01:41.552Z,94979.81
2023-03-22T00:04:08.007Z,95003.94
2023-03-22T00:06:34.625Z,95016.16
2023-03-22T00:09:01.135Z,95026.78
2023-03-22T00:11:27.746Z,95021.72
2023-03-22T00:13:54.722Z,94986.03
2023-03-22T00:16:21.647Z,94980.81
2023-03-22T00:18:48.301Z,94996.13
2023-03-22T00:21:15.484Z,95010.16
2023-03-22T00:23:42.085Z,95018.16
2023-03-22T00:26:09.199Z,95005.63
2023-03-22T00:28:36.223Z,95030.06
2023-03-22T00:31:03.402Z,95040.50
2023-03-22T00:33:30.414Z,95047.72
2023-03-22T00:36:10.555Z,95052.59
2023-03-22T00:38:44.949Z,95065.66
2023-03-22T00:41:17.086Z,95080.66
2023-03-22T00:43:43.692Z,95094.53
2023-03-22T00:46:10.773Z,95101.22
2023-03-22T00:48:37.311Z,95083.94
2023-03-22T00:51:03.915Z,95057.31
2023-03-22T00:53:30.530Z,95037.28
2023-03-22T00:55:57.076Z,95011.16
2023-03-22T00:58:23.505Z,95007.25
2023-03-22T01:00:49.952Z,95003.66
2023-03-22T01:03:16.829Z,95001.69
2023-03-22T01:05:46.385Z,94998.09
2023-03-22T01:08:12.874Z,95001.34
2023-03-22T01:10:39.845Z,95006.56
2023-03-22T01:13:06.423Z,94986.03
2023-03-22T01:15:32.923Z,94975.94
2023-03-22T01:17:59.405Z,94941.34
2023-03-22T01:20:25.969Z,94942.00
2023-03-22T01:22:52.452Z,94946.22
2023-03-22T01:25:19.018Z,94944.59
2023-03-22T01:27:45.537Z,94939.38
2023-03-22T01:30:12.349Z,94934.16
2023-03-22T01:32:38.771Z,94933.34
2023-03-22T01:35:06.217Z,94930.56
2023-03-22T01:37:32.854Z,94924.56
2023-03-22T01:39:59.532Z,94926.97
2023-03-22T01:42:26.172Z,94937.41
2023-03-22T01:45:14.446Z,94926.16
2023-03-22T01:47:41.902Z,94937.91
2023-03-22T01:50:08.439Z,94943.91
2023-03-22T01:52:34.785Z,94937.06
2023-03-22T01:55:01.363Z,94943.91
2023-03-22T01:57:27.706Z,94933.84
2023-03-22T01:59:54.139Z,94929.25
2023-03-22T02:02:21.996Z,94940.31
2023-03-22T02:04:50.850Z,94942.28
2023-03-22T02:07:25.896Z,94917.03
2023-03-22T02:09:53.115Z,94920.91
2023-03-22T02:12:38.060Z,94938.03
2023-03-22T02:15:05.136Z,94959.09
2023-03-22T02:17:45.634Z,94945.88
2023-03-22T02:20:12.000Z,94962.00
2023-03-22T02:23:00.163Z,94977.50
2023-03-22T02:26:08.256Z,94990.03
2023-03-22T02:28:51.282Z,95005.69
2023-03-22T02:31:49.850Z,94986.78
2023-03-22T02:34:43.753Z,94987.56
2023-03-22T02:37:40.657Z,94970.28
2023-03-22T02:40:28.124Z,94976.16
2023-03-22T02:42:57.783Z,94975.19
2023-03-22T02:45:34.950Z,94986.41
2023-03-22T02:48:04.904Z,94988.88
2023-03-22T02:51:02.059Z,94973.19
2023-03-22T02:53:52.531Z,94972.88
2023-03-22T02:56:26.244Z,94970.25
2023-03-22T02:58:57.297Z,94976.09
2023-03-22T03:01:26.724Z,94996.34
2023-03-22T03:03:56.550Z,95039.22
2023-03-22T03:06:25.665Z,95062.72
2023-03-22T03:08:53.358Z,95091.94
2023-03-22T03:11:19.960Z,95093.56
2023-03-22T03:13:48.020Z,95132.44
2023-03-22T03:16:17.319Z,95133.38
2023-03-22T03:18:48.771Z,95122.16
2023-03-22T03:21:32.565Z,95144.00
2023-03-22T03:24:42.928Z,95132.44
2023-03-22T03:27:21.686Z,95138.59
2023-03-22T03:29:56.433Z,95139.44
2023-03-22T03:32:38.060Z,95147.13
2023-03-22T03:35:08.597Z,95146.44
2023-03-22T03:37:47.241Z,95150.06
2023-03-22T03:40:16.351Z,95152.03
2023-03-22T03:42:50.695Z,95143.19
2023-03-22T03:45:17.205Z,95141.56
2023-03-22T03:47:44.723Z,95134.69
2023-03-22T03:50:11.863Z,95134.69
2023-03-22T03:52:38.430Z,95137.16
2023-03-22T03:55:05.230Z,95141.38
2023-03-22T03:57:31.784Z,95125.09
2023-03-22T03:59:58.487Z,95125.91
2023-03-22T04:02:24.967Z,95120.69
2023-03-22T04:04:51.380Z,95149.72
2023-03-22T04:07:17.720Z,95154.94
2023-03-22T04:09:44.064Z,95163.78
2023-03-22T04:12:10.493Z,95158.56
2023-03-22T04:14:36.880Z,95168.16
2023-03-22T04:17:03.291Z,95181.06
2023-03-22T04:19:29.671Z,95203.59
2023-03-22T04:21:56.063Z,95192.66
2023-03-22T04:24:22.453Z,95181.41
2023-03-22T04:26:48.954Z,95172.09
2023-03-22T04:29:16.058Z,95147.13
2023-03-22T04:31:42.639Z,95145.50
2023-03-22T04:34:09.081Z,95149.91
2023-03-22T04:36:39.346Z,95136.22
2023-03-22T04:39:10.435Z,95130.16
2023-03-22T04:41:37.082Z,95131.16
2023-03-22T04:44:06.553Z,95127.38
2023-03-22T04:46:34.827Z,95120.53
2023-03-22T04:49:01.499Z,95102.41
2023-03-22T04:51:27.931Z,95097.19
2023-03-22T04:53:54.476Z,95088.69
2023-03-22T04:56:20.920Z,95078.25
2023-03-22T04:58:47.965Z,95064.25
2023-03-22T05:01:15.465Z,95043.66
2023-03-22T05:03:43.128Z,95028.00
2023-03-22T05:06:09.669Z,95025.22
2023-03-22T05:08:36.213Z,95018.53
2023-03-22T05:11:10.707Z,95049.97
2023-03-22T05:13:37.600Z,95090.63
2023-03-22T05:16:05.081Z,95132.06
2023-03-22T05:18:32.767Z,95192.13
2023-03-22T05:20:59.988Z,95232.31
2023-03-22T05:23:27.163Z,95229.03
2023-03-22T05:25:53.671Z,95228.25
2023-03-22T05:28:21.333Z,95252.22
2023-03-22T05:30:51.902Z,95261.69
2023-03-22T05:33:24.278Z,95260.72
2023-03-22T05:35:51.212Z,95283.25
2023-03-22T05:38:17.743Z,95273.78
2023-03-22T05:40:44.714Z,95301.22
2023-03-22T05:43:11.131Z,95309.72
2023-03-22T05:45:37.482Z,95328.63
2023-03-22T05:48:04.426Z,95352.16
2023-03-22T05:50:30.829Z,95352.00
2023-03-22T05:52:57.691Z,95363.28
2023-03-22T05:55:24.361Z,95351.84
2023-03-22T05:57:53.800Z,95383.53
2023-03-22T06:00:20.552Z,95398.22
2023-03-22T06:02:47.938Z,95407.69
2023-03-22T06:05:16.554Z,95400.84
2023-03-22T06:07:43.055Z,95419.81
2023-03-22T06:10:12.753Z,95406.88
2023-03-22T06:12:39.227Z,95383.22
2023-03-22T06:15:06.317Z,95412.59
2023-03-22T06:17:32.778Z,95402.16
2023-03-22T06:19:59.190Z,95380.09
2023-03-22T06:22:25.653Z,95385.78
2023-03-22T06:24:52.067Z,95399.53
2023-03-22T06:27:18.446Z,95401.16
2023-03-22T06:29:49.576Z,95378.28
2023-03-22T06:32:16.177Z,95362.25
2023-03-22T06:34:42.661Z,95363.56
2023-03-22T06:37:09.054Z,95370.44
2023-03-22T06:39:35.720Z,95352.78
2023-03-22T06:42:02.159Z,95353.09
2023-03-22T06:44:28.557Z,95368.44
2023-03-22T06:46:55.260Z,95387.25
2023-03-22T06:49:22.706Z,95388.06
2023-03-22T06:51:49.096Z,95434.66
2023-03-22T06:54:16.510Z,95470.00
2023-03-22T06:56:42.898Z,95520.16
2023-03-22T06:59:09.245Z,95518.19
2023-03-22T07:01:35.926Z,95555.19
2023-03-22T07:04:02.333Z,95561.69
2023-03-22T07:06:28.830Z,95526.38
2023-03-22T07:08:55.636Z,95445.94
2023-03-22T07:11:21.984Z,95405.38
2023-03-22T07:13:48.963Z,95415.16
2023-03-22T07:16:16.346Z,95423.31
2023-03-22T07:18:43.946Z,95545.97
2023-03-22T07:21:10.387Z,95607.50
2023-03-22T07:23:37.222Z,95607.81
2023-03-22T07:26:03.844Z,95652.34
2023-03-22T07:28:30.297Z,95655.28
2023-03-22T07:31:01.375Z,95630.06
2023-03-22T07:33:28.008Z,95643.81
2023-03-22T07:35:54.362Z,95591.59
2023-03-22T07:38:24.039Z,95621.88
2023-03-22T07:40:56.441Z,95604.53
2023-03-22T07:43:22.945Z,95736.81
2023-03-22T07:45:50.533Z,95792.81
2023-03-22T07:48:17.702Z,95820.63
2023-03-22T07:50:44.097Z,95846.53
2023-03-22T07:53:10.953Z,95856.31
2023-03-22T07:55:37.593Z,95852.56
2023-03-22T07:58:04.362Z,95797.06
2023-03-22T08:00:31.396Z,95831.47
2023-03-22T08:02:57.922Z,95838.53
2023-03-22T08:05:24.847Z,95866.22
2023-03-22T08:07:52.592Z,95848.19
2023-03-22T08:10:19.369Z,95915.84
2023-03-22T08:12:45.723Z,95939.13
2023-03-22T08:15:12.280Z,95956.34
2023-03-22T08:17:38.843Z,96022.56
2023-03-22T08:20:09.101Z,96057.31
2023-03-22T08:22:36.609Z,96022.91
2023-03-22T08:25:03.970Z,96006.53
2023-03-22T08:27:31.286Z,95943.97
2023-03-22T08:29:58.541Z,96064.47
2023-03-22T08:32:25.078Z,96167.16
2023-03-22T08:34:52.646Z,96199.16
2023-03-22T08:37:21.732Z,96206.72
2023-03-22T08:39:48.113Z,96227.13
2023-03-22T08:42:14.527Z,96234.34
2023-03-22T08:44:41.083Z,96247.16
2023-03-22T08:47:07.536Z,96221.91
2023-03-22T08:49:34.023Z,96259.69
2023-03-22T08:52:00.712Z,96338.13
2023-03-22T08:54:33.340Z,96348.69
2023-03-22T08:56:59.735Z,96360.53
2023-03-22T08:59:26.363Z,96422.56
2023-03-22T09:01:52.906Z,96380.59
2023-03-22T09:04:19.343Z,96435.47
2023-03-22T09:06:46.959Z,96481.44
2023-03-22T09:09:13.535Z,96456.19
2023-03-22T09:11:41.221Z,96465.72
2023-03-22T09:14:07.651Z,96547.53
2023-03-22T09:16:34.862Z,96580.41
2023-03-22T09:19:02.105Z,96643.81
2023-03-22T09:21:29.876Z,96704.69
2023-03-22T09:23:56.519Z,96692.53
2023-03-22T09:26:23.793Z,96699.94
2023-03-22T09:28:50.384Z,96683.88
2023-03-22T09:31:19.782Z,96668.13
2023-03-22T09:33:46.899Z,96656.84
2023-03-22T09:36:13.327Z,96649.19
2023-03-22T09:38:41.260Z,96675.59
2023-03-22T09:41:12.707Z,96679.06
2023-03-22T09:43:49.846Z,96653.09
2023-03-22T09:46:20.434Z,96688.53
2023-03-22T09:48:48.321Z,96651.72
2023-03-22T09:51:37.787Z,96658.34
2023-03-22T09:54:04.215Z,96673.53
2023-03-22T09:56:31.219Z,96655.16
2023-03-22T09:59:18.785Z,96690.88
2023-03-22T10:02:17.458Z,96666.50
2023-03-22T10:05:05.436Z,96706.09
2023-03-22T10:07:51.626Z,96768.75
2023-03-22T10:10:20.240Z,96777.47
2023-03-22T10:12:53.343Z,96806.03
2023-03-22T10:15:37.562Z,96796.72
2023-03-22T10:18:06.912Z,96808.78
2023-03-22T10:20:36.841Z,96857.38
2023-03-22T10:23:04.512Z,96812.91
2023-03-22T10:25:36.656Z,96842.91
2023-03-22T10:28:17.050Z,96839.66
2023-03-22T10:30:43.568Z,96864.31
2023-03-22T10:33:27.364Z,96959.69
2023-03-22T10:35:53.832Z,97037.63
2023-03-22T10:38:27.205Z,97082.28
2023-03-22T10:40:54.819Z,97073.13
2023-03-22T10:43:23.844Z,97088.03
2023-03-22T10:45:51.156Z,97145.63
2023-03-22T10:48:33.127Z,97148.97
2023-03-22T10:50:59.956Z,97177.94
2023-03-22T10:53:26.327Z,97128.56
2023-03-22T10:55:52.777Z,97093.94
2023-03-22T10:58:20.528Z,97186.78
2023-03-22T11:00:51.906Z,97219.22
2023-03-22T11:03:30.791Z,97258.81
2023-03-22T11:06:17.408Z,97258.81
2023-03-22T11:08:45.174Z,97321.50
2023-03-22T11:11:25.025Z,97301.03
2023-03-22T11:14:03.226Z,97289.63
2023-03-22T11:16:30.566Z,97326.22
2023-03-22T11:18:57.453Z,97297.59
2023-03-22T11:21:30.468Z,97368.06
2023-03-22T11:24:04.875Z,97355.66
2023-03-22T11:26:39.062Z,97380.31
2023-03-22T11:29:13.510Z,97439.03
2023-03-22T11:31:54.243Z,97494.97
2023-03-22T11:34:23.129Z,97553.09
2023-03-22T11:36:56.553Z,97778.69
2023-03-22T11:39:25.852Z,97930.88
2023-03-22T11:41:52.773Z,98011.97
2023-03-22T11:44:21.552Z,98085.66
2023-03-22T11:47:00.282Z,98136.19
2023-03-22T11:49:47.669Z,98503.44
2023-03-22T11:52:23.255Z,98638.75
2023-03-22T11:54:49.962Z,98891.44
2023-03-22T11:57:19.181Z,98940.94
2023-03-22T12:00:11.539Z,99137.44
2023-03-22T12:02:43.770Z,99426.09
2023-03-22T12:05:27.277Z,99608.28
2023-03-22T12:08:06.794Z,99688.81
2023-03-22T12:10:57.463Z,99732.66
2023-03-22T12:13:32.549Z,99771.91
2023-03-22T12:16:01.341Z,99775.06
2023-03-22T12:18:34.724Z,99770.81
2023-03-22T12:21:01.289Z,99775.16
2023-03-22T12:23:32.166Z,99775.28
2023-03-22T12:26:12.197Z,99793.97
2023-03-22T12:28:59.048Z,99831.59
2023-03-22T12:31:28.452Z,99800.81
2023-03-22T12:33:55.444Z,99811.31
2023-03-22T12:36:26.520Z,99809.63
2023-03-22T12:38:54.923Z,99815.00
2023-03-22T12:41:34.508Z,99806.41
2023-03-22T12:44:09.939Z,99804.13
2023-03-22T12:46:42.199Z,99790.84
2023-03-22T12:49:23.448Z,99796.47
2023-03-22T12:51:49.866Z,99809.19
2023-03-22T12:54:16.292Z,99833.28
2023-03-22T12:56:45.029Z,99851.47
2023-03-22T12:59:23.358Z,99846.03
2023-03-22T13:01:56.477Z,99838.91
2023-03-22T13:04:28.985Z,99879.47
2023-03-22T13:06:57.631Z,99859.69
2023-03-22T13:09:42.332Z,99843.59
2023-03-22T13:12:17.913Z,99829.81
2023-03-22T13:14:53.220Z,99844.38
2023-03-22T13:17:22.730Z,99838.81
2023-03-22T13:19:53.487Z,99835.22
2023-03-22T13:22:24.206Z,99823.41
2023-03-22T13:24:59.636Z,99809.44
2023-03-22T13:27:54.168Z,99817.34
2023-03-22T13:30:21.641Z,99828.00
2023-03-22T13:32:56.132Z,99820.16
2023-03-22T13:35:28.047Z,99817.88
2023-03-22T13:38:01.962Z,99808.22
2023-03-22T13:40:37.909Z,99794.06
2023-03-22T13:43:16.652Z,99798.69
2023-03-22T13:46:04.481Z,99811.78
2023-03-22T13:48:52.563Z,99799.41
2023-03-22T13:51:25.763Z,99795.66
2023-03-22T13:53:55.750Z,99796.34
2023-03-22T13:56:35.708Z,99782.22
2023-03-22T13:59:03.793Z,99789.38
2023-03-22T14:01:35.089Z,99792.75
2023-03-22T14:04:05.305Z,99779.47
2023-03-22T14:06:33.934Z,99785.13
2023-03-22T14:09:09.601Z,99779.47
2023-03-22T14:11:45.928Z,99774.91
2023-03-22T14:14:28.703Z,99788.34
2023-03-22T14:17:00.584Z,99782.22
2023-03-22T14:19:29.303Z,99791.44
